METAR Data
IDs: Format: Raw Decoded Include TAF

Data at: 2306 UTC 25 Oct 2021

PAHY 241756Z AUTO VRB03KT 10SM CLR 07/02 A2918 RMK AO2 SLP877 6//// T00720017 10072 20050 56030 PNO $